sensor_id;sensor_type;location;lat;lon;timestamp;pressure;altitude;pressure_sealevel;temperature
15709;BMP180;7954;51.914;8.420;2023-08-20T00:01:27;100802.63;;;28.39
15709;BMP180;7954;51.914;8.420;2023-08-20T00:03:56;100800.63;;;28.37
15709;BMP180;7954;51.914;8.420;2023-08-20T00:06:25;100799.06;;;28.30
15709;BMP180;7954;51.914;8.420;2023-08-20T00:08:55;100801.06;;;28.24
15709;BMP180;7954;51.914;8.420;2023-08-20T00:11:23;100802.41;;;28.21
15709;BMP180;7954;51.914;8.420;2023-08-20T00:13:51;100817.53;;;28.16
15709;BMP180;7954;51.914;8.420;2023-08-20T00:16:20;100809.06;;;28.10
15709;BMP180;7954;51.914;8.420;2023-08-20T00:18:50;100812.84;;;28.05
15709;BMP180;7954;51.914;8.420;2023-08-20T00:21:19;100822.19;;;28.03
15709;BMP180;7954;51.914;8.420;2023-08-20T00:23:47;100815.75;;;28.00
15709;BMP180;7954;51.914;8.420;2023-08-20T00:26:17;100813.00;;;27.98
15709;BMP180;7954;51.914;8.420;2023-08-20T00:28:45;100819.41;;;27.93
15709;BMP180;7954;51.914;8.420;2023-08-20T00:31:14;100821.66;;;27.91
15709;BMP180;7954;51.914;8.420;2023-08-20T00:33:42;100826.38;;;27.86
15709;BMP180;7954;51.914;8.420;2023-08-20T00:36:26;100809.56;;;27.83
15709;BMP180;7954;51.914;8.420;2023-08-20T00:38:55;100803.28;;;27.81
15709;BMP180;7954;51.914;8.420;2023-08-20T00:41:24;100809.66;;;27.76
15709;BMP180;7954;51.914;8.420;2023-08-20T00:43:52;100809.34;;;27.73
15709;BMP180;7954;51.914;8.420;2023-08-20T00:46:21;100819.09;;;27.67
15709;BMP180;7954;51.914;8.420;2023-08-20T00:48:49;100826.56;;;27.64
15709;BMP180;7954;51.914;8.420;2023-08-20T00:51:17;100834.78;;;27.60
15709;BMP180;7954;51.914;8.420;2023-08-20T00:53:45;100835.78;;;27.53
15709;BMP180;7954;51.914;8.420;2023-08-20T00:56:14;100845.34;;;27.46
15709;BMP180;7954;51.914;8.420;2023-08-20T00:58:44;100834.50;;;27.41
15709;BMP180;7954;51.914;8.420;2023-08-20T01:01:12;100837.69;;;27.39
15709;BMP180;7954;51.914;8.420;2023-08-20T01:03:40;100831.97;;;27.34
15709;BMP180;7954;51.914;8.420;2023-08-20T01:06:16;100840.34;;;27.32
15709;BMP180;7954;51.914;8.420;2023-08-20T01:08:53;100840.03;;;27.29
15709;BMP180;7954;51.914;8.420;2023-08-20T01:11:29;100836.03;;;27.24
15709;BMP180;7954;51.914;8.420;2023-08-20T01:13:59;100834.78;;;27.21
15709;BMP180;7954;51.914;8.420;2023-08-20T01:16:28;100827.44;;;27.17
15709;BMP180;7954;51.914;8.420;2023-08-20T01:18:57;100833.22;;;27.14
15709;BMP180;7954;51.914;8.420;2023-08-20T01:21:34;100824.75;;;27.08
15709;BMP180;7954;51.914;8.420;2023-08-20T01:24:11;100820.00;;;27.04
15709;BMP180;7954;51.914;8.420;2023-08-20T01:26:56;100828.53;;;27.03
15709;BMP180;7954;51.914;8.420;2023-08-20T01:29:30;100818.41;;;26.98
15709;BMP180;7954;51.914;8.420;2023-08-20T01:31:58;100820.91;;;26.89
15709;BMP180;7954;51.914;8.420;2023-08-20T01:34:28;100824.09;;;26.87
15709;BMP180;7954;51.914;8.420;2023-08-20T01:36:56;100823.00;;;26.85
15709;BMP180;7954;51.914;8.420;2023-08-20T01:39:24;100827.88;;;26.82
15709;BMP180;7954;51.914;8.420;2023-08-20T01:41:52;100833.78;;;26.81
15709;BMP180;7954;51.914;8.420;2023-08-20T01:44:20;100829.94;;;26.77
15709;BMP180;7954;51.914;8.420;2023-08-20T01:46:50;100831.44;;;26.75
15709;BMP180;7954;51.914;8.420;2023-08-20T01:49:17;100835.13;;;26.77
15709;BMP180;7954;51.914;8.420;2023-08-20T01:51:46;100827.34;;;26.77
15709;BMP180;7954;51.914;8.420;2023-08-20T01:54:14;100826.25;;;26.75
15709;BMP180;7954;51.914;8.420;2023-08-20T01:56:42;100833.28;;;26.76
15709;BMP180;7954;51.914;8.420;2023-08-20T01:59:10;100829.03;;;26.77
15709;BMP180;7954;51.914;8.420;2023-08-20T02:01:39;100829.94;;;26.77
15709;BMP180;7954;51.914;8.420;2023-08-20T02:04:08;100827.19;;;26.76
15709;BMP180;7954;51.914;8.420;2023-08-20T02:06:36;100820.00;;;26.73
15709;BMP180;7954;51.914;8.420;2023-08-20T02:09:04;100815.25;;;26.69
15709;BMP180;7954;51.914;8.420;2023-08-20T02:11:33;100813.25;;;26.67
15709;BMP180;7954;51.914;8.420;2023-08-20T02:14:02;100818.66;;;26.61
15709;BMP180;7954;51.914;8.420;2023-08-20T02:16:31;100806.53;;;26.54
15709;BMP180;7954;51.914;8.420;2023-08-20T02:18:59;100804.53;;;26.51
15709;BMP180;7954;51.914;8.420;2023-08-20T02:21:30;100821.41;;;26.48
15709;BMP180;7954;51.914;8.420;2023-08-20T02:23:58;100835.13;;;26.47
15709;BMP180;7954;51.914;8.420;2023-08-20T02:26:26;100840.13;;;26.45
15709;BMP180;7954;51.914;8.420;2023-08-20T02:28:54;100850.34;;;26.44
15709;BMP180;7954;51.914;8.420;2023-08-20T02:31:22;100846.63;;;26.42
15709;BMP180;7954;51.914;8.420;2023-08-20T02:33:50;100853.50;;;26.41
15709;BMP180;7954;51.914;8.420;2023-08-20T02:36:18;100845.16;;;26.44
15709;BMP180;7954;51.914;8.420;2023-08-20T02:38:47;100851.81;;;26.42
15709;BMP180;7954;51.914;8.420;2023-08-20T02:41:15;100845.59;;;26.33
15709;BMP180;7954;51.914;8.420;2023-08-20T02:43:43;100839.72;;;26.27
15709;BMP180;7954;51.914;8.420;2023-08-20T02:46:11;100847.09;;;26.31
15709;BMP180;7954;51.914;8.420;2023-08-20T02:48:40;100852.41;;;26.39
15709;BMP180;7954;51.914;8.420;2023-08-20T02:51:08;100857.00;;;26.42
15709;BMP180;7954;51.914;8.420;2023-08-20T02:53:36;100849.41;;;26.43
15709;BMP180;7954;51.914;8.420;2023-08-20T02:56:06;100862.44;;;26.52
15709;BMP180;7954;51.914;8.420;2023-08-20T02:58:34;100854.69;;;26.52
15709;BMP180;7954;51.914;8.420;2023-08-20T03:01:02;100862.13;;;26.49
15709;BMP180;7954;51.914;8.420;2023-08-20T03:03:30;100866.47;;;26.41
15709;BMP180;7954;51.914;8.420;2023-08-20T03:05:58;100858.09;;;26.44
15709;BMP180;7954;51.914;8.420;2023-08-20T03:08:26;100859.19;;;26.46
15709;BMP180;7954;51.914;8.420;2023-08-20T03:10:54;100862.13;;;26.49
15709;BMP180;7954;51.914;8.420;2023-08-20T03:13:24;100854.09;;;26.54
15709;BMP180;7954;51.914;8.420;2023-08-20T03:18:20;100854.63;;;26.59
15709;BMP180;7954;51.914;8.420;2023-08-20T03:20:48;100859.38;;;26.62
15709;BMP180;7954;51.914;8.420;2023-08-20T03:23:16;100852.13;;;26.67
15709;BMP180;7954;51.914;8.420;2023-08-20T03:25:43;100850.53;;;26.76
15709;BMP180;7954;51.914;8.420;2023-08-20T03:28:11;100849.34;;;26.81
15709;BMP180;7954;51.914;8.420;2023-08-20T03:30:40;100843.75;;;26.85
15709;BMP180;7954;51.914;8.420;2023-08-20T03:33:09;100842.25;;;26.87
15709;BMP180;7954;51.914;8.420;2023-08-20T03:35:37;100842.56;;;26.90
15709;BMP180;7954;51.914;8.420;2023-08-20T03:38:05;100850.94;;;26.87
15709;BMP180;7954;51.914;8.420;2023-08-20T03:40:32;100840.25;;;26.84
15709;BMP180;7954;51.914;8.420;2023-08-20T03:43:00;100852.84;;;26.81
15709;BMP180;7954;51.914;8.420;2023-08-20T03:45:28;100850.69;;;26.77
15709;BMP180;7954;51.914;8.420;2023-08-20T03:47:59;100854.03;;;26.76
15709;BMP180;7954;51.914;8.420;2023-08-20T03:50:28;100857.94;;;26.73
15709;BMP180;7954;51.914;8.420;2023-08-20T03:52:56;100865.91;;;26.74
15709;BMP180;7954;51.914;8.420;2023-08-20T03:55:24;100862.53;;;26.75
15709;BMP180;7954;51.914;8.420;2023-08-20T03:57:52;100871.75;;;26.80
15709;BMP180;7954;51.914;8.420;2023-08-20T04:00:20;100875.44;;;26.82
15709;BMP180;7954;51.914;8.420;2023-08-20T04:02:48;100889.16;;;26.81
15709;BMP180;7954;51.914;8.420;2023-08-20T04:05:18;100897.78;;;26.73
15709;BMP180;7954;51.914;8.420;2023-08-20T04:07:46;100897.50;;;26.63
15709;BMP180;7954;51.914;8.420;2023-08-20T04:10:14;100899.38;;;26.64
15709;BMP180;7954;51.914;8.420;2023-08-20T04:12:42;100907.63;;;26.69
15709;BMP180;7954;51.914;8.420;2023-08-20T04:15:10;100916.25;;;26.76
15709;BMP180;7954;51.914;8.420;2023-08-20T04:17:38;100907.72;;;26.77
15709;BMP180;7954;51.914;8.420;2023-08-20T04:20:07;100911.16;;;26.85
15709;BMP180;7954;51.914;8.420;2023-08-20T04:22:38;100907.41;;;26.90
15709;BMP180;7954;51.914;8.420;2023-08-20T04:25:07;100909.72;;;26.95
15709;BMP180;7954;51.914;8.420;2023-08-20T04:27:35;100893.63;;;26.98
15709;BMP180;7954;51.914;8.420;2023-08-20T04:30:05;100892.88;;;26.99
15709;BMP180;7954;51.914;8.420;2023-08-20T04:32:33;100895.84;;;26.95
15709;BMP180;7954;51.914;8.420;2023-08-20T04:35:01;100909.00;;;26.96
15709;BMP180;7954;51.914;8.420;2023-08-20T04:37:29;100907.91;;;26.94
15709;BMP180;7954;51.914;8.420;2023-08-20T04:39:59;100913.50;;;26.90
15709;BMP180;7954;51.914;8.420;2023-08-20T04:42:27;100913.31;;;26.89
15709;BMP180;7954;51.914;8.420;2023-08-20T04:44:55;100917.59;;;26.88
15709;BMP180;7954;51.914;8.420;2023-08-20T04:47:23;100918.03;;;26.84
15709;BMP180;7954;51.914;8.420;2023-08-20T04:49:51;100916.19;;;26.83
15709;BMP180;7954;51.914;8.420;2023-08-20T04:52:19;100920.25;;;26.81
15709;BMP180;7954;51.914;8.420;2023-08-20T04:54:48;100917.34;;;26.78
15709;BMP180;7954;51.914;8.420;2023-08-20T04:57:17;100918.69;;;26.75
15709;BMP180;7954;51.914;8.420;2023-08-20T04:59:45;100913.16;;;26.72
15709;BMP180;7954;51.914;8.420;2023-08-20T05:02:13;100920.00;;;26.71
15709;BMP180;7954;51.914;8.420;2023-08-20T05:04:41;100919.53;;;26.67
15709;BMP180;7954;51.914;8.420;2023-08-20T05:07:09;100921.53;;;26.69
15709;BMP180;7954;51.914;8.420;2023-08-20T05:09:37;100916.50;;;26.71
15709;BMP180;7954;51.914;8.420;2023-08-20T05:12:06;100916.34;;;26.69
15709;BMP180;7954;51.914;8.420;2023-08-20T05:14:36;100910.38;;;26.70
15709;BMP180;7954;51.914;8.420;2023-08-20T05:17:03;100910.97;;;26.68
15709;BMP180;7954;51.914;8.420;2023-08-20T05:19:32;100908.38;;;26.68
15709;BMP180;7954;51.914;8.420;2023-08-20T05:22:00;100911.16;;;26.69
15709;BMP180;7954;51.914;8.420;2023-08-20T05:24:28;100904.44;;;26.71
15709;BMP180;7954;51.914;8.420;2023-08-20T05:27:10;100909.22;;;26.75
15709;BMP180;7954;51.914;8.420;2023-08-20T05:29:42;100913.66;;;26.76
15709;BMP180;7954;51.914;8.420;2023-08-20T05:32:11;100916.59;;;26.79
15709;BMP180;7954;51.914;8.420;2023-08-20T05:34:38;100912.50;;;26.81
15709;BMP180;7954;51.914;8.420;2023-08-20T05:37:06;100911.75;;;26.82
15709;BMP180;7954;51.914;8.420;2023-08-20T05:39:37;100919.63;;;26.91
15709;BMP180;7954;51.914;8.420;2023-08-20T05:42:05;100921.78;;;26.95
15709;BMP180;7954;51.914;8.420;2023-08-20T05:44:33;100906.19;;;27.02
15709;BMP180;7954;51.914;8.420;2023-08-20T05:47:03;100900.00;;;27.08
15709;BMP180;7954;51.914;8.420;2023-08-20T05:49:32;100908.09;;;27.11
15709;BMP180;7954;51.914;8.420;2023-08-20T05:52:00;100901.72;;;27.16
15709;BMP180;7954;51.914;8.420;2023-08-20T05:54:28;100903.16;;;27.21
15709;BMP180;7954;51.914;8.420;2023-08-20T05:56:57;100899.22;;;27.25
15709;BMP180;7954;51.914;8.420;2023-08-20T05:59:24;100888.84;;;27.25
15709;BMP180;7954;51.914;8.420;2023-08-20T06:01:53;100906.72;;;27.30
15709;BMP180;7954;51.914;8.420;2023-08-20T06:04:22;100908.50;;;27.38
15709;BMP180;7954;51.914;8.420;2023-08-20T06:06:50;100912.06;;;27.47
15709;BMP180;7954;51.914;8.420;2023-08-20T06:09:19;100913.47;;;27.52
15709;BMP180;7954;51.914;8.420;2023-08-20T06:11:46;100919.69;;;27.61
15709;BMP180;7954;51.914;8.420;2023-08-20T06:14:15;100922.06;;;27.75
15709;BMP180;7954;51.914;8.420;2023-08-20T06:16:43;100923.09;;;27.92
15709;BMP180;7954;51.914;8.420;2023-08-20T06:19:11;100917.88;;;28.07
15709;BMP180;7954;51.914;8.420;2023-08-20T06:21:40;100900.31;;;28.13
15709;BMP180;7954;51.914;8.420;2023-08-20T06:24:09;100899.16;;;28.18
15709;BMP180;7954;51.914;8.420;2023-08-20T06:26:39;100903.00;;;28.22
15709;BMP180;7954;51.914;8.420;2023-08-20T06:29:06;100909.88;;;28.21
15709;BMP180;7954;51.914;8.420;2023-08-20T06:31:35;100908.56;;;28.33
15709;BMP180;7954;51.914;8.420;2023-08-20T06:34:03;100921.78;;;28.52
15709;BMP180;7954;51.914;8.420;2023-08-20T06:36:31;100914.50;;;28.73
15709;BMP180;7954;51.914;8.420;2023-08-20T06:39:02;100913.97;;;28.84
15709;BMP180;7954;51.914;8.420;2023-08-20T06:41:31;100911.97;;;28.90
15709;BMP180;7954;51.914;8.420;2023-08-20T06:43:59;100917.50;;;28.93
15709;BMP180;7954;51.914;8.420;2023-08-20T06:46:27;100906.50;;;29.04
15709;BMP180;7954;51.914;8.420;2023-08-20T06:48:56;100910.78;;;29.12
15709;BMP180;7954;51.914;8.420;2023-08-20T06:51:24;100912.47;;;29.20
15709;BMP180;7954;51.914;8.420;2023-08-20T06:53:54;100905.94;;;29.31
15709;BMP180;7954;51.914;8.420;2023-08-20T06:56:24;100901.97;;;29.43
15709;BMP180;7954;51.914;8.420;2023-08-20T06:58:54;100900.56;;;29.55
15709;BMP180;7954;51.914;8.420;2023-08-20T07:01:22;100899.94;;;29.58
15709;BMP180;7954;51.914;8.420;2023-08-20T07:03:50;100902.69;;;29.68
15709;BMP180;7954;51.914;8.420;2023-08-20T07:06:20;100899.78;;;29.73
15709;BMP180;7954;51.914;8.420;2023-08-20T07:08:48;100900.66;;;29.82
15709;BMP180;7954;51.914;8.420;2023-08-20T07:11:16;100903.72;;;29.87
15709;BMP180;7954;51.914;8.420;2023-08-20T07:13:46;100903.44;;;29.92
15709;BMP180;7954;51.914;8.420;2023-08-20T07:16:14;100900.97;;;30.02
15709;BMP180;7954;51.914;8.420;2023-08-20T07:18:42;100895.91;;;30.03
15709;BMP180;7954;51.914;8.420;2023-08-20T07:21:10;100899.75;;;29.98
15709;BMP180;7954;51.914;8.420;2023-08-20T07:23:38;100902.47;;;30.08
15709;BMP180;7954;51.914;8.420;2023-08-20T07:26:08;100909.19;;;30.15
15709;BMP180;7954;51.914;8.420;2023-08-20T07:28:37;100894.72;;;30.35
15709;BMP180;7954;51.914;8.420;2023-08-20T07:31:26;100886.84;;;30.44
15709;BMP180;7954;51.914;8.420;2023-08-20T07:33:56;100877.75;;;30.57
15709;BMP180;7954;51.914;8.420;2023-08-20T07:36:30;100889.53;;;30.62
15709;BMP180;7954;51.914;8.420;2023-08-20T07:38:59;100893.56;;;30.59
15709;BMP180;7954;51.914;8.420;2023-08-20T07:41:29;100894.59;;;30.60
15709;BMP180;7954;51.914;8.420;2023-08-20T07:43:57;100896.63;;;30.81
15709;BMP180;7954;51.914;8.420;2023-08-20T07:46:26;100898.56;;;30.92
15709;BMP180;7954;51.914;8.420;2023-08-20T07:48:54;100890.72;;;31.01
15709;BMP180;7954;51.914;8.420;2023-08-20T07:51:22;100894.19;;;31.10
15709;BMP180;7954;51.914;8.420;2023-08-20T07:53:50;100892.13;;;31.16
15709;BMP180;7954;51.914;8.420;2023-08-20T07:56:19;100896.09;;;31.21
15709;BMP180;7954;51.914;8.420;2023-08-20T07:58:47;100891.97;;;31.14
15709;BMP180;7954;51.914;8.420;2023-08-20T08:01:15;100891.56;;;31.10
15709;BMP180;7954;51.914;8.420;2023-08-20T08:03:45;100893.03;;;30.98
15709;BMP180;7954;51.914;8.420;2023-08-20T08:06:13;100894.59;;;30.96
15709;BMP180;7954;51.914;8.420;2023-08-20T08:08:42;100886.13;;;30.98
15709;BMP180;7954;51.914;8.420;2023-08-20T08:11:11;100891.50;;;31.00
15709;BMP180;7954;51.914;8.420;2023-08-20T08:13:39;100898.38;;;30.99
15709;BMP180;7954;51.914;8.420;2023-08-20T08:16:07;100893.16;;;30.99
15709;BMP180;7954;51.914;8.420;2023-08-20T08:18:35;100901.28;;;31.02
15709;BMP180;7954;51.914;8.420;2023-08-20T08:21:05;100891.84;;;31.13
15709;BMP180;7954;51.914;8.420;2023-08-20T08:23:33;100894.13;;;31.18
15709;BMP180;7954;51.914;8.420;2023-08-20T08:26:00;100888.97;;;31.28
15709;BMP180;7954;51.914;8.420;2023-08-20T08:28:29;100885.28;;;31.26
15709;BMP180;7954;51.914;8.420;2023-08-20T08:30:58;100903.06;;;31.30
15709;BMP180;7954;51.914;8.420;2023-08-20T08:33:27;100893.44;;;31.39
15709;BMP180;7954;51.914;8.420;2023-08-20T08:35:55;100893.25;;;31.46
15709;BMP180;7954;51.914;8.420;2023-08-20T08:38:25;100900.41;;;31.57
15709;BMP180;7954;51.914;8.420;2023-08-20T08:40:55;100892.63;;;31.67
15709;BMP180;7954;51.914;8.420;2023-08-20T08:43:22;100904.41;;;31.72
15709;BMP180;7954;51.914;8.420;2023-08-20T08:45:52;100901.50;;;31.69
15709;BMP180;7954;51.914;8.420;2023-08-20T08:48:20;100895.28;;;31.77
15709;BMP180;7954;51.914;8.420;2023-08-20T08:50:49;100898.47;;;31.83
15709;BMP180;7954;51.914;8.420;2023-08-20T08:53:17;100891.69;;;31.94
15709;BMP180;7954;51.914;8.420;2023-08-20T08:55:47;100894.13;;;32.01
15709;BMP180;7954;51.914;8.420;2023-08-20T08:58:15;100898.72;;;32.04
15709;BMP180;7954;51.914;8.420;2023-08-20T09:00:43;100894.25;;;32.03
15709;BMP180;7954;51.914;8.420;2023-08-20T09:03:12;100894.03;;;32.10
15709;BMP180;7954;51.914;8.420;2023-08-20T09:05:46;100892.50;;;32.22
15709;BMP180;7954;51.914;8.420;2023-08-20T09:08:21;100889.91;;;32.32
15709;BMP180;7954;51.914;8.420;2023-08-20T09:10:52;100891.50;;;32.40
15709;BMP180;7954;51.914;8.420;2023-08-20T09:13:22;100886.78;;;32.46
15709;BMP180;7954;51.914;8.420;2023-08-20T09:15:52;100883.81;;;32.51
15709;BMP180;7954;51.914;8.420;2023-08-20T09:18:20;100890.41;;;32.56
15709;BMP180;7954;51.914;8.420;2023-08-20T09:20:49;100887.25;;;32.60
15709;BMP180;7954;51.914;8.420;2023-08-20T09:23:17;100887.25;;;32.70
15709;BMP180;7954;51.914;8.420;2023-08-20T09:25:45;100885.19;;;32.76
15709;BMP180;7954;51.914;8.420;2023-08-20T09:28:14;100879.66;;;32.83
15709;BMP180;7954;51.914;8.420;2023-08-20T09:30:55;100885.97;;;32.95
15709;BMP180;7954;51.914;8.420;2023-08-20T09:33:23;100870.78;;;32.91
15709;BMP180;7954;51.914;8.420;2023-08-20T09:35:51;100871.31;;;32.97
15709;BMP180;7954;51.914;8.420;2023-08-20T09:38:21;100872.13;;;33.06
15709;BMP180;7954;51.914;8.420;2023-08-20T09:40:51;100883.66;;;33.08
15709;BMP180;7954;51.914;8.420;2023-08-20T09:43:22;100877.34;;;33.06
15709;BMP180;7954;51.914;8.420;2023-08-20T09:45:54;100879.44;;;33.20
15709;BMP180;7954;51.914;8.420;2023-08-20T09:48:24;100889.78;;;33.28
15709;BMP180;7954;51.914;8.420;2023-08-20T09:50:56;100879.16;;;33.36
15709;BMP180;7954;51.914;8.420;2023-08-20T09:53:30;100886.25;;;33.37
15709;BMP180;7954;51.914;8.420;2023-08-20T09:56:06;100885.94;;;33.44
15709;BMP180;7954;51.914;8.420;2023-08-20T09:58:39;100892.47;;;33.49
15709;BMP180;7954;51.914;8.420;2023-08-20T10:01:08;100879.25;;;33.58
15709;BMP180;7954;51.914;8.420;2023-08-20T10:03:37;100889.72;;;33.68
15709;BMP180;7954;51.914;8.420;2023-08-20T10:06:06;100882.25;;;33.72
15709;BMP180;7954;51.914;8.420;2023-08-20T10:08:34;100886.34;;;33.90
15709;BMP180;7954;51.914;8.420;2023-08-20T10:11:02;100869.16;;;34.03
15709;BMP180;7954;51.914;8.420;2023-08-20T10:13:31;100874.28;;;34.23
15709;BMP180;7954;51.914;8.420;2023-08-20T10:16:00;100873.00;;;34.40
15709;BMP180;7954;51.914;8.420;2023-08-20T10:18:28;100873.13;;;34.62
15709;BMP180;7954;51.914;8.420;2023-08-20T10:20:57;100873.88;;;34.71
15709;BMP180;7954;51.914;8.420;2023-08-20T10:23:29;100875.22;;;34.99
15709;BMP180;7954;51.914;8.420;2023-08-20T10:26:07;100864.31;;;35.39
15709;BMP180;7954;51.914;8.420;2023-08-20T10:28:35;100862.06;;;35.78
15709;BMP180;7954;51.914;8.420;2023-08-20T10:31:06;100863.88;;;35.90
15709;BMP180;7954;51.914;8.420;2023-08-20T10:33:35;100868.84;;;35.74
15709;BMP180;7954;51.914;8.420;2023-08-20T10:36:08;100860.94;;;35.74
15709;BMP180;7954;51.914;8.420;2023-08-20T10:38:37;100864.25;;;35.95
15709;BMP180;7954;51.914;8.420;2023-08-20T10:41:07;100855.31;;;36.04
15709;BMP180;7954;51.914;8.420;2023-08-20T10:43:37;100860.25;;;35.99
15709;BMP180;7954;51.914;8.420;2023-08-20T10:46:10;100860.34;;;36.01
15709;BMP180;7954;51.914;8.420;2023-08-20T10:48:41;100854.34;;;36.26
15709;BMP180;7954;51.914;8.420;2023-08-20T10:51:11;100855.44;;;36.30
15709;BMP180;7954;51.914;8.420;2023-08-20T10:53:41;100856.91;;;36.49
15709;BMP180;7954;51.914;8.420;2023-08-20T10:56:10;100853.25;;;36.71
15709;BMP180;7954;51.914;8.420;2023-08-20T10:58:40;100851.44;;;36.95
15709;BMP180;7954;51.914;8.420;2023-08-20T11:01:19;100846.88;;;37.30
15709;BMP180;7954;51.914;8.420;2023-08-20T11:03:49;100840.38;;;37.37
15709;BMP180;7954;51.914;8.420;2023-08-20T11:06:18;100845.56;;;37.36
15709;BMP180;7954;51.914;8.420;2023-08-20T11:08:46;100845.88;;;37.40
15709;BMP180;7954;51.914;8.420;2023-08-20T11:11:15;100854.78;;;37.42
15709;BMP180;7954;51.914;8.420;2023-08-20T11:13:47;100853.97;;;37.43
15709;BMP180;7954;51.914;8.420;2023-08-20T11:16:17;100853.66;;;37.26
15709;BMP180;7954;51.914;8.420;2023-08-20T11:18:48;100863.84;;;37.09
15709;BMP180;7954;51.914;8.420;2023-08-20T11:21:17;100866.66;;;37.12
15709;BMP180;7954;51.914;8.420;2023-08-20T11:23:46;100861.41;;;37.12
15709;BMP180;7954;51.914;8.420;2023-08-20T11:26:17;100874.19;;;37.06
15709;BMP180;7954;51.914;8.420;2023-08-20T11:28:45;100879.81;;;36.86
15709;BMP180;7954;51.914;8.420;2023-08-20T11:31:14;100879.25;;;36.67
15709;BMP180;7954;51.914;8.420;2023-08-20T11:33:43;100879.38;;;36.44
15709;BMP180;7954;51.914;8.420;2023-08-20T11:36:11;100867.81;;;36.42
15709;BMP180;7954;51.914;8.420;2023-08-20T11:38:39;100876.53;;;36.41
15709;BMP180;7954;51.914;8.420;2023-08-20T11:41:07;100868.28;;;36.37
15709;BMP180;7954;51.914;8.420;2023-08-20T11:43:35;100872.22;;;36.55
15709;BMP180;7954;51.914;8.420;2023-08-20T11:46:02;100875.00;;;36.33
15709;BMP180;7954;51.914;8.420;2023-08-20T11:48:31;100867.13;;;36.33
15709;BMP180;7954;51.914;8.420;2023-08-20T11:51:05;100859.81;;;36.29
15709;BMP180;7954;51.914;8.420;2023-08-20T11:53:33;100865.13;;;36.18
15709;BMP180;7954;51.914;8.420;2023-08-20T11:56:01;100859.25;;;36.22
15709;BMP180;7954;51.914;8.420;2023-08-20T11:58:29;100851.81;;;36.39
15709;BMP180;7954;51.914;8.420;2023-08-20T12:00:57;100860.19;;;36.58
15709;BMP180;7954;51.914;8.420;2023-08-20T12:03:29;100855.44;;;36.65
15709;BMP180;7954;51.914;8.420;2023-08-20T12:05:58;100858.03;;;36.77
15709;BMP180;7954;51.914;8.420;2023-08-20T12:08:27;100848.84;;;36.59
15709;BMP180;7954;51.914;8.420;2023-08-20T12:10:57;100853.25;;;36.36
15709;BMP180;7954;51.914;8.420;2023-08-20T12:13:26;100858.50;;;36.11
15709;BMP180;7954;51.914;8.420;2023-08-20T12:15:54;100848.19;;;36.14
15709;BMP180;7954;51.914;8.420;2023-08-20T12:18:22;100857.41;;;36.44
15709;BMP180;7954;51.914;8.420;2023-08-20T12:20:50;100840.66;;;36.92
15709;BMP180;7954;51.914;8.420;2023-08-20T12:23:18;100839.97;;;37.31
15709;BMP180;7954;51.914;8.420;2023-08-20T12:25:50;100827.72;;;37.58
15709;BMP180;7954;51.914;8.420;2023-08-20T12:28:18;100832.66;;;37.92
15709;BMP180;7954;51.914;8.420;2023-08-20T12:30:47;100835.38;;;38.19
15709;BMP180;7954;51.914;8.420;2023-08-20T12:33:15;100828.56;;;38.50
15709;BMP180;7954;51.914;8.420;2023-08-20T12:35:43;100825.66;;;38.73
15709;BMP180;7954;51.914;8.420;2023-08-20T12:38:11;100818.88;;;39.05
15709;BMP180;7954;51.914;8.420;2023-08-20T12:40:40;100823.22;;;39.33
15709;BMP180;7954;51.914;8.420;2023-08-20T12:43:14;100821.78;;;39.53
15709;BMP180;7954;51.914;8.420;2023-08-20T12:45:43;100823.78;;;39.57
15709;BMP180;7954;51.914;8.420;2023-08-20T12:48:11;100822.88;;;39.42
15709;BMP180;7954;51.914;8.420;2023-08-20T12:50:39;100819.22;;;39.26
15709;BMP180;7954;51.914;8.420;2023-08-20T12:53:07;100854.22;;;39.36
15709;BMP180;7954;51.914;8.420;2023-08-20T12:55:35;100860.59;;;40.27
15709;BMP180;7954;51.914;8.420;2023-08-20T12:58:03;100849.38;;;41.96
15709;BMP180;7954;51.914;8.420;2023-08-20T13:00:33;100836.94;;;43.26
15709;BMP180;7954;51.914;8.420;2023-08-20T13:03:02;100842.41;;;44.11
15709;BMP180;7954;51.914;8.420;2023-08-20T13:05:31;100837.22;;;44.58
15709;BMP180;7954;51.914;8.420;2023-08-20T13:08:00;100810.06;;;43.20
15709;BMP180;7954;51.914;8.420;2023-08-20T13:10:29;100841.06;;;44.01
15709;BMP180;7954;51.914;8.420;2023-08-20T13:13:00;100846.75;;;45.48
15709;BMP180;7954;51.914;8.420;2023-08-20T13:15:29;100836.66;;;46.17
15709;BMP180;7954;51.914;8.420;2023-08-20T13:18:00;100847.03;;;46.94
15709;BMP180;7954;51.914;8.420;2023-08-20T13:20:29;100796.59;;;46.79
15709;BMP180;7954;51.914;8.420;2023-08-20T13:22:56;100831.53;;;46.82
15709;BMP180;7954;51.914;8.420;2023-08-20T13:25:24;100825.13;;;47.75
15709;BMP180;7954;51.914;8.420;2023-08-20T13:27:52;100842.28;;;47.46
15709;BMP180;7954;51.914;8.420;2023-08-20T13:30:20;100842.75;;;47.65
15709;BMP180;7954;51.914;8.420;2023-08-20T13:32:49;100827.69;;;48.44
15709;BMP180;7954;51.914;8.420;2023-08-20T13:35:18;100824.78;;;49.19
15709;BMP180;7954;51.914;8.420;2023-08-20T13:37:46;100827.75;;;49.34
15709;BMP180;7954;51.914;8.420;2023-08-20T13:40:14;100835.72;;;49.78
15709;BMP180;7954;51.914;8.420;2023-08-20T13:42:42;100793.75;;;48.87
15709;BMP180;7954;51.914;8.420;2023-08-20T13:45:10;100818.06;;;48.96
15709;BMP180;7954;51.914;8.420;2023-08-20T13:47:38;100794.94;;;46.23
15709;BMP180;7954;51.914;8.420;2023-08-20T13:50:07;100806.13;;;44.83
15709;BMP180;7954;51.914;8.420;2023-08-20T13:52:36;100808.69;;;45.29
15709;BMP180;7954;51.914;8.420;2023-08-20T13:55:05;100835.56;;;45.59
15709;BMP180;7954;51.914;8.420;2023-08-20T13:57:34;100796.97;;;45.76
15709;BMP180;7954;51.914;8.420;2023-08-20T14:00:02;100841.88;;;46.40
15709;BMP180;7954;51.914;8.420;2023-08-20T14:02:34;100799.78;;;46.66
15709;BMP180;7954;51.914;8.420;2023-08-20T14:05:03;100802.91;;;45.17
15709;BMP180;7954;51.914;8.420;2023-08-20T14:07:31;100805.16;;;43.91
15709;BMP180;7954;51.914;8.420;2023-08-20T14:10:03;100821.22;;;43.11
15709;BMP180;7954;51.914;8.420;2023-08-20T14:12:31;100805.53;;;42.61
15709;BMP180;7954;51.914;8.420;2023-08-20T14:15:01;100810.53;;;42.17
15709;BMP180;7954;51.914;8.420;2023-08-20T14:17:29;100811.03;;;42.82
15709;BMP180;7954;51.914;8.420;2023-08-20T14:19:57;100829.97;;;43.48
15709;BMP180;7954;51.914;8.420;2023-08-20T14:22:25;100824.97;;;43.98